sensor_id;sensor_type;location;lat;lon;timestamp;P1;durP1;ratioP1;P2;durP2;ratioP2
14890;SDS011;7537;48.014;11.590;2022-11-20T00:02:00;2.24;;;1.86;;
14890;SDS011;7537;48.014;11.590;2022-11-20T00:07:27;2.21;;;1.73;;
14890;SDS011;7537;48.014;11.590;2022-11-20T00:12:54;2.06;;;1.62;;
14890;SDS011;7537;48.014;11.590;2022-11-20T00:18:25;1.78;;;1.87;;
14890;SDS011;7537;48.014;11.590;2022-11-20T00:23:53;2.24;;;1.90;;
14890;SDS011;7537;48.014;11.590;2022-11-20T00:29:22;1.51;;;1.51;;
14890;SDS011;7537;48.014;11.590;2022-11-20T00:34:49;1.61;;;1.71;;
14890;SDS011;7537;48.014;11.590;2022-11-20T00:40:17;1.72;;;1.69;;
14890;SDS011;7537;48.014;11.590;2022-11-20T00:45:44;1.76;;;1.66;;
14890;SDS011;7537;48.014;11.590;2022-11-20T00:51:12;1.81;;;1.63;;
14890;SDS011;7537;48.014;11.590;2022-11-20T00:56:40;1.94;;;1.62;;
14890;SDS011;7537;48.014;11.590;2022-11-20T01:02:09;3.53;;;1.49;;
14890;SDS011;7537;48.014;11.590;2022-11-20T01:07:36;2.27;;;2.17;;
14890;SDS011;7537;48.014;11.590;2022-11-20T01:13:04;2.73;;;2.23;;
14890;SDS011;7537;48.014;11.590;2022-11-20T01:18:35;2.99;;;2.31;;
14890;SDS011;7537;48.014;11.590;2022-11-20T01:24:03;2.18;;;2.22;;
14890;SDS011;7537;48.014;11.590;2022-11-20T01:29:31;1.69;;;1.84;;
14890;SDS011;7537;48.014;11.590;2022-11-20T01:35:00;2.57;;;2.53;;
14890;SDS011;7537;48.014;11.590;2022-11-20T01:40:27;1.71;;;1.82;;
14890;SDS011;7537;48.014;11.590;2022-11-20T01:45:59;1.75;;;1.86;;
14890;SDS011;7537;48.014;11.590;2022-11-20T01:51:28;2.06;;;2.17;;
14890;SDS011;7537;48.014;11.590;2022-11-20T01:56:56;2.60;;;2.18;;
14890;SDS011;7537;48.014;11.590;2022-11-20T02:02:24;1.74;;;1.84;;
14890;SDS011;7537;48.014;11.590;2022-11-20T02:07:54;2.50;;;2.28;;
14890;SDS011;7537;48.014;11.590;2022-11-20T02:13:21;2.23;;;2.37;;
14890;SDS011;7537;48.014;11.590;2022-11-20T02:18:53;2.24;;;2.21;;
14890;SDS011;7537;48.014;11.590;2022-11-20T02:24:21;2.07;;;2.19;;
14890;SDS011;7537;48.014;11.590;2022-11-20T02:29:50;4.24;;;2.13;;
14890;SDS011;7537;48.014;11.590;2022-11-20T02:35:39;2.91;;;2.02;;
14890;SDS011;7537;48.014;11.590;2022-11-20T02:41:08;2.64;;;2.08;;
14890;SDS011;7537;48.014;11.590;2022-11-20T02:46:36;2.41;;;1.85;;
14890;SDS011;7537;48.014;11.590;2022-11-20T02:52:03;1.91;;;1.96;;
14890;SDS011;7537;48.014;11.590;2022-11-20T02:57:31;1.87;;;1.98;;
14890;SDS011;7537;48.014;11.590;2022-11-20T03:02:58;2.76;;;2.77;;
14890;SDS011;7537;48.014;11.590;2022-11-20T03:08:26;2.50;;;2.60;;
14890;SDS011;7537;48.014;11.590;2022-11-20T03:13:55;2.22;;;2.33;;
14890;SDS011;7537;48.014;11.590;2022-11-20T03:19:25;2.63;;;2.56;;
14890;SDS011;7537;48.014;11.590;2022-11-20T03:24:53;5.81;;;2.77;;
14890;SDS011;7537;48.014;11.590;2022-11-20T03:30:20;2.60;;;2.53;;
14890;SDS011;7537;48.014;11.590;2022-11-20T03:35:48;1.94;;;2.04;;
14890;SDS011;7537;48.014;11.590;2022-11-20T03:41:18;5.83;;;2.91;;
14890;SDS011;7537;48.014;11.590;2022-11-20T03:46:46;2.13;;;2.23;;
14890;SDS011;7537;48.014;11.590;2022-11-20T03:52:14;2.34;;;2.39;;
14890;SDS011;7537;48.014;11.590;2022-11-20T03:57:41;1.94;;;2.11;;
14890;SDS011;7537;48.014;11.590;2022-11-20T04:03:08;2.28;;;2.43;;
14890;SDS011;7537;48.014;11.590;2022-11-20T04:08:36;3.43;;;2.77;;
14890;SDS011;7537;48.014;11.590;2022-11-20T04:14:04;2.38;;;2.35;;
14890;SDS011;7537;48.014;11.590;2022-11-20T04:19:36;2.65;;;2.77;;
14890;SDS011;7537;48.014;11.590;2022-11-20T04:25:04;3.45;;;2.86;;
14890;SDS011;7537;48.014;11.590;2022-11-20T04:30:32;2.72;;;2.40;;
14890;SDS011;7537;48.014;11.590;2022-11-20T04:36:03;2.66;;;2.55;;
14890;SDS011;7537;48.014;11.590;2022-11-20T04:41:32;2.43;;;2.47;;
14890;SDS011;7537;48.014;11.590;2022-11-20T04:47:00;2.27;;;2.32;;
14890;SDS011;7537;48.014;11.590;2022-11-20T04:52:29;3.93;;;2.51;;
14890;SDS011;7537;48.014;11.590;2022-11-20T04:57:56;2.54;;;2.59;;
14890;SDS011;7537;48.014;11.590;2022-11-20T05:03:23;2.61;;;2.62;;
14890;SDS011;7537;48.014;11.590;2022-11-20T05:08:50;3.19;;;2.83;;
14890;SDS011;7537;48.014;11.590;2022-11-20T05:14:18;2.80;;;2.67;;
14890;SDS011;7537;48.014;11.590;2022-11-20T05:19:48;2.17;;;2.22;;
14890;SDS011;7537;48.014;11.590;2022-11-20T05:25:17;3.09;;;2.95;;
14890;SDS011;7537;48.014;11.590;2022-11-20T05:30:44;4.18;;;3.34;;
14890;SDS011;7537;48.014;11.590;2022-11-20T05:36:12;3.45;;;3.63;;
14890;SDS011;7537;48.014;11.590;2022-11-20T05:41:40;3.15;;;2.96;;
14890;SDS011;7537;48.014;11.590;2022-11-20T05:47:07;3.81;;;3.48;;
14890;SDS011;7537;48.014;11.590;2022-11-20T05:52:35;3.71;;;3.88;;
14890;SDS011;7537;48.014;11.590;2022-11-20T05:58:03;4.18;;;4.19;;
14890;SDS011;7537;48.014;11.590;2022-11-20T06:03:30;3.51;;;3.58;;
14890;SDS011;7537;48.014;11.590;2022-11-20T06:08:58;3.65;;;3.63;;
14890;SDS011;7537;48.014;11.590;2022-11-20T06:14:26;4.46;;;4.00;;
14890;SDS011;7537;48.014;11.590;2022-11-20T06:19:57;3.35;;;3.49;;
14890;SDS011;7537;48.014;11.590;2022-11-20T06:25:24;4.70;;;4.15;;
14890;SDS011;7537;48.014;11.590;2022-11-20T06:30:54;3.54;;;3.74;;
14890;SDS011;7537;48.014;11.590;2022-11-20T06:36:22;3.91;;;4.05;;
14890;SDS011;7537;48.014;11.590;2022-11-20T06:41:49;3.01;;;3.16;;
14890;SDS011;7537;48.014;11.590;2022-11-20T06:47:17;2.69;;;2.77;;
14890;SDS011;7537;48.014;11.590;2022-11-20T06:52:44;2.52;;;2.68;;
14890;SDS011;7537;48.014;11.590;2022-11-20T06:58:12;2.69;;;2.84;;
14890;SDS011;7537;48.014;11.590;2022-11-20T07:03:42;2.40;;;2.52;;
14890;SDS011;7537;48.014;11.590;2022-11-20T07:09:09;2.97;;;3.08;;
14890;SDS011;7537;48.014;11.590;2022-11-20T07:14:36;2.62;;;2.79;;
14890;SDS011;7537;48.014;11.590;2022-11-20T07:20:08;5.81;;;2.89;;
14890;SDS011;7537;48.014;11.590;2022-11-20T07:25:35;3.00;;;2.94;;
14890;SDS011;7537;48.014;11.590;2022-11-20T07:31:03;2.28;;;2.38;;
14890;SDS011;7537;48.014;11.590;2022-11-20T07:36:32;2.85;;;2.71;;
14890;SDS011;7537;48.014;11.590;2022-11-20T07:41:59;2.51;;;2.60;;
14890;SDS011;7537;48.014;11.590;2022-11-20T07:47:26;2.33;;;2.37;;
14890;SDS011;7537;48.014;11.590;2022-11-20T07:53:00;2.35;;;2.46;;
14890;SDS011;7537;48.014;11.590;2022-11-20T07:58:28;4.13;;;3.23;;
14890;SDS011;7537;48.014;11.590;2022-11-20T08:03:55;4.15;;;3.21;;
14890;SDS011;7537;48.014;11.590;2022-11-20T08:09:24;4.66;;;2.28;;
14890;SDS011;7537;48.014;11.590;2022-11-20T08:14:51;2.00;;;2.12;;
14890;SDS011;7537;48.014;11.590;2022-11-20T08:20:22;2.23;;;2.12;;
14890;SDS011;7537;48.014;11.590;2022-11-20T08:25:49;1.65;;;1.74;;
14890;SDS011;7537;48.014;11.590;2022-11-20T08:31:17;3.02;;;2.76;;
14890;SDS011;7537;48.014;11.590;2022-11-20T08:36:44;2.18;;;2.33;;
14890;SDS011;7537;48.014;11.590;2022-11-20T08:42:19;1.96;;;2.08;;
14890;SDS011;7537;48.014;11.590;2022-11-20T08:47:46;1.94;;;2.02;;
14890;SDS011;7537;48.014;11.590;2022-11-20T08:53:14;1.54;;;1.67;;
14890;SDS011;7537;48.014;11.590;2022-11-20T08:58:41;1.87;;;1.72;;
14890;SDS011;7537;48.014;11.590;2022-11-20T09:04:09;1.76;;;1.87;;
14890;SDS011;7537;48.014;11.590;2022-11-20T09:09:36;1.11;;;1.18;;
14890;SDS011;7537;48.014;11.590;2022-11-20T09:15:06;2.16;;;2.14;;
14890;SDS011;7537;48.014;11.590;2022-11-20T09:20:36;1.97;;;2.06;;
14890;SDS011;7537;48.014;11.590;2022-11-20T09:26:05;1.62;;;1.72;;
14890;SDS011;7537;48.014;11.590;2022-11-20T09:31:32;2.12;;;1.93;;
14890;SDS011;7537;48.014;11.590;2022-11-20T09:36:59;1.12;;;1.24;;
14890;SDS011;7537;48.014;11.590;2022-11-20T09:42:30;1.93;;;1.52;;
14890;SDS011;7537;48.014;11.590;2022-11-20T09:48:04;1.20;;;1.30;;
14890;SDS011;7537;48.014;11.590;2022-11-20T09:53:35;1.76;;;1.16;;
14890;SDS011;7537;48.014;11.590;2022-11-20T09:59:06;1.46;;;1.24;;
14890;SDS011;7537;48.014;11.590;2022-11-20T10:04:34;1.33;;;1.33;;
14890;SDS011;7537;48.014;11.590;2022-11-20T10:10:13;1.01;;;0.89;;
14890;SDS011;7537;48.014;11.590;2022-11-20T10:15:43;1.51;;;1.24;;
14890;SDS011;7537;48.014;11.590;2022-11-20T10:21:21;0.79;;;0.89;;
14890;SDS011;7537;48.014;11.590;2022-11-20T10:26:53;1.62;;;1.55;;
14890;SDS011;7537;48.014;11.590;2022-11-20T10:32:24;0.84;;;0.89;;
14890;SDS011;7537;48.014;11.590;2022-11-20T10:37:56;0.89;;;0.90;;
14890;SDS011;7537;48.014;11.590;2022-11-20T10:43:27;1.24;;;0.67;;
14890;SDS011;7537;48.014;11.590;2022-11-20T10:48:55;1.21;;;1.18;;
14890;SDS011;7537;48.014;11.590;2022-11-20T10:54:26;0.68;;;0.75;;
14890;SDS011;7537;48.014;11.590;2022-11-20T11:00:02;0.62;;;0.66;;
14890;SDS011;7537;48.014;11.590;2022-11-20T11:05:35;1.25;;;0.93;;
14890;SDS011;7537;48.014;11.590;2022-11-20T11:11:07;0.72;;;0.68;;
14890;SDS011;7537;48.014;11.590;2022-11-20T11:16:49;1.06;;;0.79;;
14890;SDS011;7537;48.014;11.590;2022-11-20T11:22:20;0.83;;;0.71;;
14890;SDS011;7537;48.014;11.590;2022-11-20T11:27:49;0.73;;;0.57;;
14890;SDS011;7537;48.014;11.590;2022-11-20T11:33:19;0.84;;;0.91;;
14890;SDS011;7537;48.014;11.590;2022-11-20T11:38:48;0.79;;;0.90;;
14890;SDS011;7537;48.014;11.590;2022-11-20T11:44:18;0.98;;;0.80;;
14890;SDS011;7537;48.014;11.590;2022-11-20T11:49:46;0.38;;;0.39;;
14890;SDS011;7537;48.014;11.590;2022-11-20T11:55:14;1.55;;;1.47;;
14890;SDS011;7537;48.014;11.590;2022-11-20T12:00:47;0.85;;;0.82;;
14890;SDS011;7537;48.014;11.590;2022-11-20T12:06:17;0.61;;;0.67;;
14890;SDS011;7537;48.014;11.590;2022-11-20T12:11:45;1.03;;;1.06;;
14890;SDS011;7537;48.014;11.590;2022-11-20T12:17:14;1.11;;;1.22;;
14890;SDS011;7537;48.014;11.590;2022-11-20T12:22:46;0.85;;;0.62;;
14890;SDS011;7537;48.014;11.590;2022-11-20T12:34:07;0.69;;;0.79;;
14890;SDS011;7537;48.014;11.590;2022-11-20T12:39:39;1.08;;;1.12;;
14890;SDS011;7537;48.014;11.590;2022-11-20T12:45:14;2.31;;;2.17;;
14890;SDS011;7537;48.014;11.590;2022-11-20T12:50:46;1.04;;;1.16;;
14890;SDS011;7537;48.014;11.590;2022-11-20T12:56:19;1.63;;;1.29;;
14890;SDS011;7537;48.014;11.590;2022-11-20T13:01:49;0.97;;;1.08;;
14890;SDS011;7537;48.014;11.590;2022-11-20T13:07:20;1.29;;;1.36;;
14890;SDS011;7537;48.014;11.590;2022-11-20T13:12:49;1.30;;;1.23;;
14890;SDS011;7537;48.014;11.590;2022-11-20T13:18:16;0.96;;;1.07;;
14890;SDS011;7537;48.014;11.590;2022-11-20T13:23:45;1.52;;;1.60;;
14890;SDS011;7537;48.014;11.590;2022-11-20T13:29:11;1.20;;;1.33;;
14890;SDS011;7537;48.014;11.590;2022-11-20T13:34:50;1.43;;;1.48;;
14890;SDS011;7537;48.014;11.590;2022-11-20T13:40:22;1.78;;;1.78;;
14890;SDS011;7537;48.014;11.590;2022-11-20T13:46:00;4.09;;;1.41;;
14890;SDS011;7537;48.014;11.590;2022-11-20T13:51:28;0.77;;;0.87;;
14890;SDS011;7537;48.014;11.590;2022-11-20T13:57:03;0.72;;;0.81;;
14890;SDS011;7537;48.014;11.590;2022-11-20T14:02:31;0.86;;;0.96;;
14890;SDS011;7537;48.014;11.590;2022-11-20T14:07:57;1.11;;;1.23;;
14890;SDS011;7537;48.014;11.590;2022-11-20T14:13:22;2.36;;;1.22;;
14890;SDS011;7537;48.014;11.590;2022-11-20T14:18:50;2.51;;;1.16;;
14890;SDS011;7537;48.014;11.590;2022-11-20T14:24:19;1.12;;;1.18;;
14890;SDS011;7537;48.014;11.590;2022-11-20T14:29:45;1.47;;;1.50;;
14890;SDS011;7537;48.014;11.590;2022-11-20T14:35:13;1.30;;;1.32;;
14890;SDS011;7537;48.014;11.590;2022-11-20T14:40:40;2.02;;;1.26;;
14890;SDS011;7537;48.014;11.590;2022-11-20T14:46:07;1.23;;;1.07;;
14890;SDS011;7537;48.014;11.590;2022-11-20T14:51:33;0.97;;;1.05;;
14890;SDS011;7537;48.014;11.590;2022-11-20T14:57:00;0.68;;;0.74;;
14890;SDS011;7537;48.014;11.590;2022-11-20T15:02:26;1.02;;;0.88;;
14890;SDS011;7537;48.014;11.590;2022-11-20T15:08:05;0.64;;;0.56;;
14890;SDS011;7537;48.014;11.590;2022-11-20T15:13:32;1.67;;;0.56;;
14890;SDS011;7537;48.014;11.590;2022-11-20T15:18:58;1.14;;;0.46;;
14890;SDS011;7537;48.014;11.590;2022-11-20T15:24:27;0.51;;;0.57;;
14890;SDS011;7537;48.014;11.590;2022-11-20T15:29:52;0.80;;;0.78;;
14890;SDS011;7537;48.014;11.590;2022-11-20T15:35:18;2.07;;;1.11;;
14890;SDS011;7537;48.014;11.590;2022-11-20T15:40:44;2.41;;;1.26;;
14890;SDS011;7537;48.014;11.590;2022-11-20T15:46:10;1.29;;;1.36;;
14890;SDS011;7537;48.014;11.590;2022-11-20T15:51:37;1.24;;;1.28;;
14890;SDS011;7537;48.014;11.590;2022-11-20T15:57:03;0.84;;;0.93;;
14890;SDS011;7537;48.014;11.590;2022-11-20T16:02:29;2.90;;;1.38;;
14890;SDS011;7537;48.014;11.590;2022-11-20T16:07:54;0.78;;;0.88;;
14890;SDS011;7537;48.014;11.590;2022-11-20T16:13:20;1.48;;;1.25;;
14890;SDS011;7537;48.014;11.590;2022-11-20T16:18:45;1.13;;;1.07;;
14890;SDS011;7537;48.014;11.590;2022-11-20T16:24:13;0.86;;;0.95;;
14890;SDS011;7537;48.014;11.590;2022-11-20T16:29:45;1.24;;;1.31;;
14890;SDS011;7537;48.014;11.590;2022-11-20T16:35:17;2.64;;;1.53;;
14890;SDS011;7537;48.014;11.590;2022-11-20T16:40:45;1.36;;;1.21;;
14890;SDS011;7537;48.014;11.590;2022-11-20T16:46:12;1.18;;;1.07;;
14890;SDS011;7537;48.014;11.590;2022-11-20T16:51:39;1.20;;;1.19;;
14890;SDS011;7537;48.014;11.590;2022-11-20T16:57:07;0.85;;;0.91;;
14890;SDS011;7537;48.014;11.590;2022-11-20T17:02:34;1.14;;;0.84;;
14890;SDS011;7537;48.014;11.590;2022-11-20T17:08:03;1.74;;;1.77;;
14890;SDS011;7537;48.014;11.590;2022-11-20T17:13:31;4.53;;;3.25;;
14890;SDS011;7537;48.014;11.590;2022-11-20T17:18:59;4.01;;;3.22;;
14890;SDS011;7537;48.014;11.590;2022-11-20T17:24:27;1.78;;;1.98;;
14890;SDS011;7537;48.014;11.590;2022-11-20T17:30:05;3.72;;;3.77;;
14890;SDS011;7537;48.014;11.590;2022-11-20T17:35:35;3.49;;;3.49;;
14890;SDS011;7537;48.014;11.590;2022-11-20T17:41:03;1.31;;;1.53;;
14890;SDS011;7537;48.014;11.590;2022-11-20T17:46:32;3.87;;;2.18;;
14890;SDS011;7537;48.014;11.590;2022-11-20T17:52:00;2.48;;;1.61;;
14890;SDS011;7537;48.014;11.590;2022-11-20T17:57:27;3.48;;;2.26;;
14890;SDS011;7537;48.014;11.590;2022-11-20T18:02:57;1.43;;;1.52;;
14890;SDS011;7537;48.014;11.590;2022-11-20T18:08:27;1.49;;;1.61;;
14890;SDS011;7537;48.014;11.590;2022-11-20T18:13:55;3.13;;;3.08;;
14890;SDS011;7537;48.014;11.590;2022-11-20T18:19:24;2.57;;;2.62;;
14890;SDS011;7537;48.014;11.590;2022-11-20T18:24:53;4.93;;;4.51;;
14890;SDS011;7537;48.014;11.590;2022-11-20T18:30:24;5.72;;;3.99;;
14890;SDS011;7537;48.014;11.590;2022-11-20T18:35:52;5.08;;;4.27;;
14890;SDS011;7537;48.014;11.590;2022-11-20T18:41:20;2.61;;;2.39;;
14890;SDS011;7537;48.014;11.590;2022-11-20T18:46:47;6.56;;;4.86;;
14890;SDS011;7537;48.014;11.590;2022-11-20T18:52:16;5.70;;;4.77;;
14890;SDS011;7537;48.014;11.590;2022-11-20T18:57:43;4.30;;;3.56;;
14890;SDS011;7537;48.014;11.590;2022-11-20T19:03:10;3.89;;;3.69;;
14890;SDS011;7537;48.014;11.590;2022-11-20T19:08:38;6.64;;;4.14;;
14890;SDS011;7537;48.014;11.590;2022-11-20T19:14:06;5.51;;;4.55;;
14890;SDS011;7537;48.014;11.590;2022-11-20T19:19:33;2.71;;;2.89;;
14890;SDS011;7537;48.014;11.590;2022-11-20T19:25:03;4.43;;;3.27;;
14890;SDS011;7537;48.014;11.590;2022-11-20T19:30:34;9.49;;;6.48;;
14890;SDS011;7537;48.014;11.590;2022-11-20T19:36:07;1.68;;;2.01;;
14890;SDS011;7537;48.014;11.590;2022-11-20T19:41:36;1.93;;;1.96;;
14890;SDS011;7537;48.014;11.590;2022-11-20T19:47:04;3.13;;;1.68;;
14890;SDS011;7537;48.014;11.590;2022-11-20T19:52:31;2.70;;;2.79;;
14890;SDS011;7537;48.014;11.590;2022-11-20T19:58:01;1.65;;;1.79;;
14890;SDS011;7537;48.014;11.590;2022-11-20T20:03:29;1.61;;;1.70;;
14890;SDS011;7537;48.014;11.590;2022-11-20T20:08:58;1.53;;;1.62;;
14890;SDS011;7537;48.014;11.590;2022-11-20T20:14:26;2.22;;;1.62;;
14890;SDS011;7537;48.014;11.590;2022-11-20T20:19:53;3.81;;;1.71;;
14890;SDS011;7537;48.014;11.590;2022-11-20T20:25:21;3.95;;;2.12;;
14890;SDS011;7537;48.014;11.590;2022-11-20T20:30:51;2.52;;;2.59;;
14890;SDS011;7537;48.014;11.590;2022-11-20T20:36:20;1.56;;;1.65;;
14890;SDS011;7537;48.014;11.590;2022-11-20T20:41:48;1.56;;;1.61;;
14890;SDS011;7537;48.014;11.590;2022-11-20T20:47:15;2.46;;;2.39;;
14890;SDS011;7537;48.014;11.590;2022-11-20T20:52:43;1.74;;;1.66;;
14890;SDS011;7537;48.014;11.590;2022-11-20T20:58:10;2.27;;;2.02;;
14890;SDS011;7537;48.014;11.590;2022-11-20T21:03:38;1.40;;;1.48;;
14890;SDS011;7537;48.014;11.590;2022-11-20T21:09:06;2.02;;;2.14;;
14890;SDS011;7537;48.014;11.590;2022-11-20T21:14:34;1.87;;;1.84;;
14890;SDS011;7537;48.014;11.590;2022-11-20T21:20:01;1.71;;;1.81;;
14890;SDS011;7537;48.014;11.590;2022-11-20T21:25:29;2.01;;;1.72;;
14890;SDS011;7537;48.014;11.590;2022-11-20T21:31:03;1.41;;;1.44;;
14890;SDS011;7537;48.014;11.590;2022-11-20T21:36:30;2.18;;;1.88;;
14890;SDS011;7537;48.014;11.590;2022-11-20T21:41:59;1.65;;;1.75;;
14890;SDS011;7537;48.014;11.590;2022-11-20T21:47:26;1.67;;;1.66;;
14890;SDS011;7537;48.014;11.590;2022-11-20T21:52:54;1.89;;;1.46;;
14890;SDS011;7537;48.014;11.590;2022-11-20T21:58:21;1.55;;;1.61;;
14890;SDS011;7537;48.014;11.590;2022-11-20T22:03:49;1.49;;;1.57;;
14890;SDS011;7537;48.014;11.590;2022-11-20T22:09:16;1.64;;;1.46;;
14890;SDS011;7537;48.014;11.590;2022-11-20T22:14:45;1.09;;;1.08;;
14890;SDS011;7537;48.014;11.590;2022-11-20T22:25:39;1.64;;;1.42;;
14890;SDS011;7537;48.014;11.590;2022-11-20T22:31:10;1.50;;;1.24;;
14890;SDS011;7537;48.014;11.590;2022-11-20T22:36:37;1.57;;;1.62;;
14890;SDS011;7537;48.014;11.590;2022-11-20T22:42:05;1.94;;;1.93;;
14890;SDS011;7537;48.014;11.590;2022-11-20T22:47:33;2.21;;;2.23;;
14890;SDS011;7537;48.014;11.590;2022-11-20T22:53:01;1.66;;;1.74;;
14890;SDS011;7537;48.014;11.590;2022-11-20T22:58:28;1.86;;;1.96;;
14890;SDS011;7537;48.014;11.590;2022-11-20T23:03:56;1.76;;;1.86;;
14890;SDS011;7537;48.014;11.590;2022-11-20T23:09:24;1.21;;;1.31;;
14890;SDS011;7537;48.014;11.590;2022-11-20T23:14:52;1.21;;;1.28;;
14890;SDS011;7537;48.014;11.590;2022-11-20T23:20:19;0.80;;;0.86;;
14890;SDS011;7537;48.014;11.590;2022-11-20T23:25:46;0.41;;;0.46;;
14890;SDS011;7537;48.014;11.590;2022-11-20T23:31:18;0.72;;;0.81;;
14890;SDS011;7537;48.014;11.590;2022-11-20T23:36:46;0.59;;;0.65;;
14890;SDS011;7537;48.014;11.590;2022-11-20T23:42:16;0.81;;;0.89;;
14890;SDS011;7537;48.014;11.590;2022-11-20T23:47:56;0.47;;;0.53;;
14890;SDS011;7537;48.014;11.590;2022-11-20T23:53:24;0.79;;;0.86;;
14890;SDS011;7537;48.014;11.590;2022-11-20T23:58:51;1.18;;;0.57;;
